Time;durP1;ratioP1;P1;durP2;ratioP2;P2;SDS_P1;SDS_P2;PMS_P1;PMS_P2;Temp;Humidity;BMP_temperature;BMP_pressure;BME280_temperature;BME280_humidity;BME280_pressure;Samples;Min_cycle;Max_cycle;Signal;HPM_P1;HPM_P2
2024/01/24 00:00:30;;;;;;;34.28;5.80;;;;;;;;;;5080757;28;20060;-66
2024/01/24 00:02:58;;;;;;;35.22;4.82;;;;;;;;;;5075504;28;20063;-65
2024/01/24 00:05:25;;;;;;;25.80;4.15;;;;;;;;;;5081218;28;20665;-65
2024/01/24 00:07:52;;;;;;;24.98;4.35;;;;;;;;;;5080036;28;20052;-65
2024/01/24 00:10:21;;;;;;;27.05;3.30;;;;;;;;;;5084005;28;20078;-65
2024/01/24 00:12:49;;;;;;;25.25;4.30;;;;;;;;;;5069915;28;20057;-65
2024/01/24 00:15:16;;;;;;;36.33;4.57;;;;;;;;;;5085298;28;20535;-65
2024/01/24 00:17:43;;;;;;;37.95;4.95;;;;;;;;;;5073964;28;20051;-66
2024/01/24 00:20:12;;;;;;;34.33;4.72;;;;;;;;;;5053103;28;20237;-65
2024/01/24 00:22:39;;;;;;;27.77;3.85;;;;;;;;;;5070793;28;20059;-65
2024/01/24 00:25:07;;;;;;;29.63;4.47;;;;;;;;;;5076331;28;20044;-65
2024/01/24 00:27:35;;;;;;;28.38;3.75;;;;;;;;;;5076224;28;20041;-65
2024/01/24 00:30:03;;;;;;;22.58;3.53;;;;;;;;;;5070801;28;20515;-66
2024/01/24 00:32:31;;;;;;;27.77;3.63;;;;;;;;;;5074061;28;20463;-65
2024/01/24 00:34:58;;;;;;;30.25;3.78;;;;;;;;;;5075060;28;20049;-66
2024/01/24 00:37:25;;;;;;;25.95;4.07;;;;;;;;;;5056691;28;20060;-65
2024/01/24 00:39:53;;;;;;;42.97;5.78;;;;;;;;;;5071718;28;20048;-66
2024/01/24 00:42:20;;;;;;;27.25;4.30;;;;;;;;;;5069222;28;20052;-66
2024/01/24 00:44:50;;;;;;;22.75;3.33;;;;;;;;;;5078890;28;20057;-65
2024/01/24 00:47:17;;;;;;;21.45;3.42;;;;;;;;;;5080832;28;20044;-65
2024/01/24 00:49:45;;;;;;;25.42;4.10;;;;;;;;;;5064231;28;20491;-66
2024/01/24 00:52:12;;;;;;;28.98;3.75;;;;;;;;;;5072996;28;20040;-65
2024/01/24 00:54:39;;;;;;;18.27;2.97;;;;;;;;;;5078358;28;20044;-66
2024/01/24 00:57:06;;;;;;;25.00;3.30;;;;;;;;;;5076027;28;20052;-65
2024/01/24 00:59:34;;;;;;;26.02;4.03;;;;;;;;;;5072817;28;20461;-66
2024/01/24 01:02:02;;;;;;;23.05;3.70;;;;;;;;;;5077039;28;20048;-66
2024/01/24 01:04:30;;;;;;;22.10;3.42;;;;;;;;;;5057519;28;20048;-66
2024/01/24 01:06:57;;;;;;;16.83;2.78;;;;;;;;;;5080772;28;20068;-65
2024/01/24 01:09:24;;;;;;;26.33;3.25;;;;;;;;;;5079078;28;20418;-66
2024/01/24 01:11:51;;;;;;;27.88;4.05;;;;;;;;;;5076934;28;20054;-66
2024/01/24 01:14:19;;;;;;;25.10;3.67;;;;;;;;;;5084666;28;20492;-66
2024/01/24 01:16:46;;;;;;;22.58;3.60;;;;;;;;;;5065319;28;20109;-65
2024/01/24 01:19:15;;;;;;;19.13;3.08;;;;;;;;;;5081995;28;20052;-65
2024/01/24 01:21:42;;;;;;;23.85;4.72;;;;;;;;;;5081056;28;20048;-65
2024/01/24 01:24:09;;;;;;;18.63;3.17;;;;;;;;;;5080044;28;20555;-65
2024/01/24 01:26:36;;;;;;;22.85;4.20;;;;;;;;;;5080901;28;20394;-65
2024/01/24 01:29:04;;;;;;;20.75;2.45;;;;;;;;;;5076503;28;20044;-66
2024/01/24 01:31:31;;;;;;;20.30;3.63;;;;;;;;;;5087274;28;20367;-65
2024/01/24 01:34:00;;;;;;;23.75;3.45;;;;;;;;;;5064890;28;20586;-65
2024/01/24 01:36:29;;;;;;;18.05;3.08;;;;;;;;;;5079439;28;20048;-65
2024/01/24 01:38:56;;;;;;;20.08;3.15;;;;;;;;;;5075124;28;20048;-65
2024/01/24 01:41:24;;;;;;;16.15;3.13;;;;;;;;;;5080232;28;20048;-65
2024/01/24 01:43:51;;;;;;;21.40;4.28;;;;;;;;;;5080139;28;20040;-65
2024/01/24 01:46:19;;;;;;;23.33;3.75;;;;;;;;;;5080349;28;20041;-65
2024/01/24 01:48:49;;;;;;;24.40;2.92;;;;;;;;;;5085913;28;20047;-65
2024/01/24 01:51:17;;;;;;;29.48;3.20;;;;;;;;;;5078432;28;20151;-65
2024/01/24 01:53:46;;;;;;;15.52;3.45;;;;;;;;;;5074763;28;20424;-65
2024/01/24 01:56:14;;;;;;;17.77;2.92;;;;;;;;;;5075822;28;20041;-66
2024/01/24 01:58:42;;;;;;;15.00;2.80;;;;;;;;;;5075816;28;20048;-66
2024/01/24 02:01:11;;;;;;;18.85;3.63;;;;;;;;;;5077654;28;20057;-65
2024/01/24 02:03:39;;;;;;;24.17;4.25;;;;;;;;;;5076601;28;20048;-66
2024/01/24 02:06:07;;;;;;;18.15;3.67;;;;;;;;;;5080317;28;20040;-66
2024/01/24 02:08:35;;;;;;;22.45;3.85;;;;;;;;;;5074466;28;20127;-65
2024/01/24 02:11:04;;;;;;;19.55;3.95;;;;;;;;;;5077540;28;20132;-65
2024/01/24 02:13:32;;;;;;;25.50;2.97;;;;;;;;;;5076718;28;20044;-65
2024/01/24 02:15:59;;;;;;;19.83;3.92;;;;;;;;;;5064029;28;20053;-65
2024/01/24 02:18:26;;;;;;;25.13;4.35;;;;;;;;;;5079784;28;20052;-65
2024/01/24 02:20:54;;;;;;;29.38;4.30;;;;;;;;;;5076432;28;20493;-65
2024/01/24 02:23:23;;;;;;;21.02;3.05;;;;;;;;;;5079457;28;20047;-65
2024/01/24 02:25:52;;;;;;;19.95;3.15;;;;;;;;;;5076340;28;20456;-65
2024/01/24 02:28:20;;;;;;;21.20;3.33;;;;;;;;;;5071674;28;20056;-65
2024/01/24 02:30:47;;;;;;;19.90;2.90;;;;;;;;;;5058940;28;20499;-65
2024/01/24 02:33:15;;;;;;;22.60;4.60;;;;;;;;;;5083498;28;20047;-66
2024/01/24 02:35:42;;;;;;;24.88;3.40;;;;;;;;;;5080225;28;20051;-66
2024/01/24 02:38:09;;;;;;;24.60;3.92;;;;;;;;;;5083844;28;20392;-65
2024/01/24 02:40:37;;;;;;;22.10;3.45;;;;;;;;;;5080248;28;20044;-65
2024/01/24 02:43:06;;;;;;;15.98;3.00;;;;;;;;;;5075219;28;20119;-66
2024/01/24 02:45:33;;;;;;;16.88;3.15;;;;;;;;;;5074967;28;20498;-65
2024/01/24 02:48:01;;;;;;;21.13;3.08;;;;;;;;;;5078790;28;20044;-65
2024/01/24 02:50:28;;;;;;;21.02;2.67;;;;;;;;;;5079526;28;20125;-66
2024/01/24 02:52:55;;;;;;;19.35;3.60;;;;;;;;;;5077966;28;20067;-65
2024/01/24 02:55:23;;;;;;;16.63;2.75;;;;;;;;;;5079911;28;20105;-66
2024/01/24 02:57:50;;;;;;;26.58;5.50;;;;;;;;;;5082048;28;20701;-65
2024/01/24 03:00:19;;;;;;;26.10;3.65;;;;;;;;;;5073192;28;20043;-66
2024/01/24 03:02:46;;;;;;;20.52;3.70;;;;;;;;;;5076680;28;20055;-65
2024/01/24 03:05:14;;;;;;;21.85;4.20;;;;;;;;;;5076406;28;20055;-66
2024/01/24 03:07:41;;;;;;;27.98;3.20;;;;;;;;;;5073896;28;20066;-65
2024/01/24 03:10:09;;;;;;;22.95;3.90;;;;;;;;;;5080451;28;20048;-66
2024/01/24 03:12:37;;;;;;;23.15;3.17;;;;;;;;;;5080866;28;20043;-65
2024/01/24 03:15:05;;;;;;;18.30;3.45;;;;;;;;;;5079657;28;20048;-66
2024/01/24 03:17:34;;;;;;;21.60;3.55;;;;;;;;;;5082342;28;20085;-66
2024/01/24 03:20:01;;;;;;;18.20;2.88;;;;;;;;;;5077791;28;20372;-66
2024/01/24 03:22:29;;;;;;;21.33;3.63;;;;;;;;;;5080254;28;20052;-65
2024/01/24 03:24:56;;;;;;;29.00;3.95;;;;;;;;;;5070097;28;20048;-66
2024/01/24 03:27:23;;;;;;;26.55;4.22;;;;;;;;;;5081188;28;20063;-66
2024/01/24 03:29:51;;;;;;;23.98;4.18;;;;;;;;;;5079240;28;20052;-66
2024/01/24 03:32:18;;;;;;;20.23;2.88;;;;;;;;;;5079974;28;20055;-66
2024/01/24 03:34:54;;;;;;;27.35;4.32;;;;;;;;;;5071677;28;20044;-65
2024/01/24 03:37:21;;;;;;;17.27;3.53;;;;;;;;;;5081709;28;20048;-66
2024/01/24 03:39:49;;;;;;;31.48;3.85;;;;;;;;;;5082083;28;20055;-66
2024/01/24 03:42:16;;;;;;;29.65;4.97;;;;;;;;;;5078713;28;20048;-66
2024/01/24 03:44:43;;;;;;;26.00;3.72;;;;;;;;;;5077973;28;20094;-66
2024/01/24 03:47:10;;;;;;;23.58;4.03;;;;;;;;;;5082787;28;20081;-66
2024/01/24 03:49:38;;;;;;;36.25;5.10;;;;;;;;;;5080525;28;20048;-66
2024/01/24 03:52:07;;;;;;;31.88;4.07;;;;;;;;;;5075711;28;20049;-65
2024/01/24 03:54:34;;;;;;;29.00;4.45;;;;;;;;;;5078526;28;20052;-66
2024/01/24 03:57:01;;;;;;;30.95;4.60;;;;;;;;;;5076135;28;20043;-65
2024/01/24 03:59:28;;;;;;;27.02;3.97;;;;;;;;;;5077484;28;20040;-66
2024/01/24 04:01:56;;;;;;;27.85;4.32;;;;;;;;;;5076631;28;20056;-66
2024/01/24 04:04:24;;;;;;;35.97;5.22;;;;;;;;;;5079058;28;20060;-66
2024/01/24 04:06:51;;;;;;;30.75;3.85;;;;;;;;;;5061994;28;20053;-66
2024/01/24 04:09:21;;;;;;;34.80;4.65;;;;;;;;;;5075266;28;20455;-65
2024/01/24 04:11:48;;;;;;;22.25;4.50;;;;;;;;;;5074979;28;20052;-66
2024/01/24 04:14:17;;;;;;;33.35;4.53;;;;;;;;;;5080284;28;20044;-66
2024/01/24 04:16:44;;;;;;;35.20;5.50;;;;;;;;;;5083602;28;20098;-66
2024/01/24 04:19:12;;;;;;;31.52;4.53;;;;;;;;;;5070866;28;20051;-66
2024/01/24 04:21:42;;;;;;;33.58;5.43;;;;;;;;;;5076778;28;20127;-66
2024/01/24 04:24:09;;;;;;;40.55;6.22;;;;;;;;;;5085234;28;20101;-66
2024/01/24 04:26:38;;;;;;;31.67;4.88;;;;;;;;;;5084883;28;20052;-66
2024/01/24 04:29:05;;;;;;;33.15;5.78;;;;;;;;;;5076885;28;20052;-66
2024/01/24 04:31:32;;;;;;;37.15;4.43;;;;;;;;;;5083277;28;20070;-66
2024/01/24 04:34:00;;;;;;;46.38;6.03;;;;;;;;;;5076631;28;20052;-66
2024/01/24 04:36:27;;;;;;;36.83;5.57;;;;;;;;;;5078763;28;20491;-66
2024/01/24 04:38:54;;;;;;;42.17;7.05;;;;;;;;;;5086909;28;20059;-66
2024/01/24 04:41:21;;;;;;;37.67;6.15;;;;;;;;;;5066133;28;20052;-66
2024/01/24 04:43:50;;;;;;;38.38;6.00;;;;;;;;;;5061197;28;20048;-66
2024/01/24 04:46:17;;;;;;;38.75;5.45;;;;;;;;;;5081828;28;20060;-66
2024/01/24 04:48:45;;;;;;;46.70;5.40;;;;;;;;;;5072830;28;20111;-66
2024/01/24 04:51:12;;;;;;;44.75;5.82;;;;;;;;;;5065334;28;20060;-66
2024/01/24 04:53:40;;;;;;;46.28;7.05;;;;;;;;;;5076749;28;20040;-66
2024/01/24 04:56:08;;;;;;;39.90;5.82;;;;;;;;;;5081388;28;20056;-66
2024/01/24 04:58:35;;;;;;;45.55;6.47;;;;;;;;;;5084311;28;20049;-66
2024/01/24 05:01:04;;;;;;;46.42;6.45;;;;;;;;;;5082931;28;20060;-66
2024/01/24 05:03:31;;;;;;;53.13;7.18;;;;;;;;;;5075264;28;20060;-66
2024/01/24 05:05:58;;;;;;;50.03;6.47;;;;;;;;;;5075461;28;20048;-66
2024/01/24 05:08:26;;;;;;;50.80;8.13;;;;;;;;;;5076677;28;20045;-66
2024/01/24 05:10:53;;;;;;;45.30;6.05;;;;;;;;;;5084948;28;20048;-66
2024/01/24 05:13:21;;;;;;;41.40;6.57;;;;;;;;;;5070873;28;20098;-66
2024/01/24 05:15:49;;;;;;;35.13;5.60;;;;;;;;;;5077587;28;20056;-66
2024/01/24 05:18:18;;;;;;;50.42;6.13;;;;;;;;;;5078787;28;20036;-66
2024/01/24 05:20:45;;;;;;;49.33;6.88;;;;;;;;;;5081106;28;20079;-66
2024/01/24 05:23:12;;;;;;;46.10;6.75;;;;;;;;;;5080080;28;20052;-66
2024/01/24 05:25:42;;;;;;;44.28;6.43;;;;;;;;;;5082942;28;20049;-66
2024/01/24 05:28:10;;;;;;;62.15;8.07;;;;;;;;;;5056756;28;20052;-66
2024/01/24 05:30:37;;;;;;;55.05;7.15;;;;;;;;;;5082798;28;20496;-66
2024/01/24 05:33:05;;;;;;;49.83;6.45;;;;;;;;;;5079997;28;20044;-66
2024/01/24 05:35:33;;;;;;;56.67;8.23;;;;;;;;;;5074841;28;20438;-66
2024/01/24 05:38:01;;;;;;;49.50;7.97;;;;;;;;;;5080467;28;20130;-66
2024/01/24 05:40:28;;;;;;;56.20;8.05;;;;;;;;;;5081340;28;20044;-66
2024/01/24 05:42:55;;;;;;;45.45;6.03;;;;;;;;;;5080904;28;20097;-66
2024/01/24 05:45:22;;;;;;;47.45;7.40;;;;;;;;;;5076182;28;20059;-66
2024/01/24 05:47:50;;;;;;;36.20;6.32;;;;;;;;;;5079051;28;20040;-66
2024/01/24 05:50:17;;;;;;;36.97;6.13;;;;;;;;;;5078585;28;20059;-66
2024/01/24 05:52:46;;;;;;;36.58;5.90;;;;;;;;;;5077712;28;20532;-66
2024/01/24 05:55:13;;;;;;;41.45;7.20;;;;;;;;;;5081470;28;20044;-66
2024/01/24 05:57:40;;;;;;;45.55;7.28;;;;;;;;;;5074043;28;20044;-66
2024/01/24 06:00:09;;;;;;;46.88;7.40;;;;;;;;;;5082188;28;20051;-66
2024/01/24 06:02:37;;;;;;;41.47;5.75;;;;;;;;;;5075736;28;20048;-66
2024/01/24 06:05:04;;;;;;;38.15;6.97;;;;;;;;;;5072860;28;20143;-66
2024/01/24 06:07:32;;;;;;;44.95;7.53;;;;;;;;;;5086017;28;20047;-66
2024/01/24 06:10:00;;;;;;;44.13;7.35;;;;;;;;;;5081632;28;20064;-66
2024/01/24 06:12:28;;;;;;;45.92;6.72;;;;;;;;;;5073971;28;20621;-66
2024/01/24 06:14:55;;;;;;;44.13;7.07;;;;;;;;;;5061454;28;20487;-66
2024/01/24 06:17:23;;;;;;;49.92;7.05;;;;;;;;;;5080016;28;20373;-66
2024/01/24 06:19:51;;;;;;;51.40;7.78;;;;;;;;;;5075192;28;20053;-66
2024/01/24 06:22:18;;;;;;;50.22;7.18;;;;;;;;;;5082989;28;20052;-66
2024/01/24 06:24:45;;;;;;;51.15;7.55;;;;;;;;;;5072856;28;20040;-66
2024/01/24 06:27:14;;;;;;;49.53;7.60;;;;;;;;;;5074785;28;20048;-65
2024/01/24 06:29:41;;;;;;;42.40;6.75;;;;;;;;;;5076306;28;20044;-66
2024/01/24 06:32:09;;;;;;;46.22;6.78;;;;;;;;;;5074338;28;20261;-66
2024/01/24 06:34:36;;;;;;;47.53;7.75;;;;;;;;;;5076753;28;20040;-66
2024/01/24 06:37:03;;;;;;;55.10;7.43;;;;;;;;;;5078521;28;20048;-66
2024/01/24 06:39:30;;;;;;;48.95;8.45;;;;;;;;;;5074952;28;20056;-66
2024/01/24 06:41:58;;;;;;;46.88;6.72;;;;;;;;;;5056725;28;20052;-66
2024/01/24 06:44:26;;;;;;;47.30;7.03;;;;;;;;;;5079444;28;20542;-66
2024/01/24 06:46:54;;;;;;;32.47;6.03;;;;;;;;;;5077595;28;20514;-66
2024/01/24 06:49:22;;;;;;;46.35;6.68;;;;;;;;;;5074375;28;20446;-66
2024/01/24 06:51:52;;;;;;;40.08;6.78;;;;;;;;;;5073990;28;20123;-65
2024/01/24 06:54:19;;;;;;;39.05;5.72;;;;;;;;;;5074650;28;20044;-66
2024/01/24 06:56:47;;;;;;;41.20;5.88;;;;;;;;;;5079639;28;20059;-66
2024/01/24 06:59:14;;;;;;;44.97;5.80;;;;;;;;;;5070447;28;20056;-66
2024/01/24 07:01:43;;;;;;;44.53;6.10;;;;;;;;;;5072744;28;20048;-66
2024/01/24 07:04:11;;;;;;;43.42;6.13;;;;;;;;;;5079909;28;20091;-66
2024/01/24 07:06:39;;;;;;;34.88;6.38;;;;;;;;;;5055717;28;20044;-66
2024/01/24 07:09:07;;;;;;;40.45;6.88;;;;;;;;;;5077315;28;20110;-66
2024/01/24 07:11:34;;;;;;;41.83;6.75;;;;;;;;;;5075309;28;20865;-66
2024/01/24 07:14:01;;;;;;;47.67;5.97;;;;;;;;;;5058093;28;20447;-66
2024/01/24 07:16:30;;;;;;;51.42;7.68;;;;;;;;;;5076934;28;20055;-66
2024/01/24 07:18:58;;;;;;;36.53;6.20;;;;;;;;;;5075341;28;20506;-66
2024/01/24 07:21:26;;;;;;;36.63;5.97;;;;;;;;;;5074084;28;20048;-66
2024/01/24 07:23:53;;;;;;;41.38;7.40;;;;;;;;;;5076651;28;20052;-66
2024/01/24 07:26:20;;;;;;;56.35;6.05;;;;;;;;;;5070204;28;20044;-66
2024/01/24 07:28:48;;;;;;;46.75;7.45;;;;;;;;;;5079412;28;20510;-66
2024/01/24 07:31:15;;;;;;;41.75;6.95;;;;;;;;;;5076198;28;20040;-66
2024/01/24 07:33:42;;;;;;;47.67;7.57;;;;;;;;;;5075875;28;20141;-66
2024/01/24 07:36:11;;;;;;;55.35;7.57;;;;;;;;;;5071238;28;20373;-66
2024/01/24 07:38:38;;;;;;;46.20;5.03;;;;;;;;;;5075346;28;20043;-66
2024/01/24 07:41:06;;;;;;;52.92;7.88;;;;;;;;;;5081103;28;20051;-66
2024/01/24 07:43:34;;;;;;;37.53;6.30;;;;;;;;;;5074108;28;20052;-66
2024/01/24 07:46:02;;;;;;;41.15;5.93;;;;;;;;;;5067906;28;20048;-66
2024/01/24 07:48:31;;;;;;;42.50;6.32;;;;;;;;;;5073568;28;20059;-66
2024/01/24 07:50:58;;;;;;;45.70;6.43;;;;;;;;;;5064861;28;20086;-66
2024/01/24 07:53:27;;;;;;;41.35;7.15;;;;;;;;;;5078803;28;20380;-66
2024/01/24 07:55:55;;;;;;;40.35;6.95;;;;;;;;;;5069257;28;20071;-66
2024/01/24 07:58:22;;;;;;;47.88;8.30;;;;;;;;;;5074221;28;20107;-66
2024/01/24 08:00:50;;;;;;;53.03;6.88;;;;;;;;;;5085871;28;20053;-66
2024/01/24 08:03:19;;;;;;;47.03;6.78;;;;;;;;;;5083661;28;20048;-66
2024/01/24 08:05:46;;;;;;;47.28;6.97;;;;;;;;;;5078015;28;20056;-66
2024/01/24 08:08:13;;;;;;;43.22;6.40;;;;;;;;;;5076001;28;20048;-66
2024/01/24 08:10:42;;;;;;;53.53;7.25;;;;;;;;;;5057795;28;20159;-66
2024/01/24 08:13:09;;;;;;;34.08;5.60;;;;;;;;;;5053826;28;20076;-66
2024/01/24 08:15:37;;;;;;;34.10;5.47;;;;;;;;;;5058979;28;20483;-66
2024/01/24 08:18:04;;;;;;;40.65;6.93;;;;;;;;;;5068354;28;21988;-66
2024/01/24 08:20:32;;;;;;;41.47;5.20;;;;;;;;;;5062778;28;20475;-66
2024/01/24 08:22:59;;;;;;;41.75;7.47;;;;;;;;;;5061733;28;20064;-66
2024/01/24 08:25:27;;;;;;;40.85;6.20;;;;;;;;;;5064134;28;20140;-66
2024/01/24 08:27:57;;;;;;;39.45;5.93;;;;;;;;;;5063590;28;20112;-66
2024/01/24 08:30:24;;;;;;;38.60;6.57;;;;;;;;;;5063854;28;20120;-66
2024/01/24 08:32:51;;;;;;;41.03;6.97;;;;;;;;;;5058064;28;20053;-66
2024/01/24 08:35:19;;;;;;;44.33;7.75;;;;;;;;;;5061444;28;20056;-66
2024/01/24 08:37:46;;;;;;;38.17;6.15;;;;;;;;;;5057185;28;20045;-65
2024/01/24 08:40:15;;;;;;;29.38;5.40;;;;;;;;;;5058919;28;20048;-66
2024/01/24 08:42:44;;;;;;;41.05;6.20;;;;;;;;;;5066390;28;20045;-66
2024/01/24 08:45:12;;;;;;;43.25;5.72;;;;;;;;;;5063519;28;20052;-66
2024/01/24 08:47:40;;;;;;;34.58;5.20;;;;;;;;;;5057069;28;20106;-66
2024/01/24 08:50:08;;;;;;;33.50;5.00;;;;;;;;;;5062549;28;20041;-66
2024/01/24 08:52:35;;;;;;;42.47;7.80;;;;;;;;;;5062396;28;20132;-66
2024/01/24 08:55:02;;;;;;;41.47;6.53;;;;;;;;;;5063023;28;20503;-66
2024/01/24 08:57:30;;;;;;;42.53;7.43;;;;;;;;;;5055461;28;20052;-66
2024/01/24 08:59:57;;;;;;;52.35;9.00;;;;;;;;;;5059569;28;20047;-66
2024/01/24 09:02:26;;;;;;;38.78;6.45;;;;;;;;;;5056221;28;20508;-66
2024/01/24 09:04:53;;;;;;;45.85;7.82;;;;;;;;;;5059287;28;20052;-66
2024/01/24 09:07:21;;;;;;;44.85;6.93;;;;;;;;;;5056532;28;20048;-66
2024/01/24 09:09:50;;;;;;;47.08;5.57;;;;;;;;;;5063902;28;20138;-66
2024/01/24 09:12:17;;;;;;;45.40;6.32;;;;;;;;;;5076788;28;20487;-66
2024/01/24 09:14:45;;;;;;;44.72;8.90;;;;;;;;;;5085448;28;20079;-66
2024/01/24 09:17:12;;;;;;;38.85;6.60;;;;;;;;;;5077320;28;20048;-66
2024/01/24 09:19:41;;;;;;;42.45;5.80;;;;;;;;;;5082459;28;20479;-66
2024/01/24 09:22:09;;;;;;;41.00;6.65;;;;;;;;;;5082527;28;20127;-66
2024/01/24 09:24:37;;;;;;;37.88;5.68;;;;;;;;;;5077490;28;20055;-66
2024/01/24 09:27:04;;;;;;;43.15;6.82;;;;;;;;;;5079687;28;20403;-66
2024/01/24 09:29:31;;;;;;;31.30;5.95;;;;;;;;;;5077284;28;20049;-65
2024/01/24 09:31:59;;;;;;;44.00;6.95;;;;;;;;;;5076013;28;20053;-66
2024/01/24 09:34:26;;;;;;;43.00;6.85;;;;;;;;;;5082983;28;20044;-66
2024/01/24 09:36:55;;;;;;;43.10;6.55;;;;;;;;;;5081583;28;20055;-66
2024/01/24 09:39:25;;;;;;;40.90;6.25;;;;;;;;;;5075234;28;20052;-66
2024/01/24 09:41:52;;;;;;;41.45;5.63;;;;;;;;;;5079059;28;20060;-66
2024/01/24 09:44:20;;;;;;;40.35;6.00;;;;;;;;;;5086331;28;20047;-66
2024/01/24 09:46:49;;;;;;;41.03;5.78;;;;;;;;;;5078322;28;20114;-66
2024/01/24 09:49:17;;;;;;;47.95;7.25;;;;;;;;;;5075090;28;20041;-66
2024/01/24 09:51:45;;;;;;;41.65;7.72;;;;;;;;;;5080592;28;20055;-66
2024/01/24 09:54:14;;;;;;;39.67;5.55;;;;;;;;;;5082419;28;20051;-66
2024/01/24 09:56:42;;;;;;;34.45;5.35;;;;;;;;;;5072286;28;20483;-66
2024/01/24 09:59:09;;;;;;;37.83;6.38;;;;;;;;;;5078997;28;20059;-66
2024/01/24 10:01:37;;;;;;;50.97;6.10;;;;;;;;;;5075036;28;20051;-66
2024/01/24 10:04:05;;;;;;;32.25;6.25;;;;;;;;;;5081457;28;20815;-66
2024/01/24 10:06:33;;;;;;;37.28;6.25;;;;;;;;;;5080739;28;20048;-66
2024/01/24 10:09:00;;;;;;;39.65;5.22;;;;;;;;;;5077470;28;20059;-66
2024/01/24 10:11:29;;;;;;;39.40;5.85;;;;;;;;;;5078681;28;20055;-66
2024/01/24 10:13:57;;;;;;;31.77;5.63;;;;;;;;;;5081353;28;20048;-66
2024/01/24 10:16:25;;;;;;;32.33;5.93;;;;;;;;;;5078826;28;20101;-66
2024/01/24 10:18:53;;;;;;;36.75;5.35;;;;;;;;;;5074008;28;20492;-66
2024/01/24 10:21:20;;;;;;;42.60;6.20;;;;;;;;;;5078457;28;20048;-66
2024/01/24 10:23:47;;;;;;;44.80;6.53;;;;;;;;;;5080299;28;20044;-66
2024/01/24 10:26:15;;;;;;;42.60;5.88;;;;;;;;;;5057325;28;20312;-66
2024/01/24 10:28:45;;;;;;;39.75;6.30;;;;;;;;;;5065892;28;20078;-66
2024/01/24 10:31:12;;;;;;;35.90;5.40;;;;;;;;;;5081006;28;20071;-66
2024/01/24 10:33:40;;;;;;;38.20;6.55;;;;;;;;;;5077914;28;20052;-66
2024/01/24 10:36:07;;;;;;;30.65;4.93;;;;;;;;;;5076382;28;20063;-66
2024/01/24 10:38:38;;;;;;;32.80;5.55;;;;;;;;;;5080087;28;20142;-66
2024/01/24 10:41:05;;;;;;;35.63;5.60;;;;;;;;;;5074588;28;20052;-66
2024/01/24 10:43:35;;;;;;;34.97;5.95;;;;;;;;;;5080956;28;20506;-66
2024/01/24 10:46:07;;;;;;;30.95;5.40;;;;;;;;;;5077418;28;20089;-66
2024/01/24 10:48:34;;;;;;;37.50;6.25;;;;;;;;;;5071984;28;20045;-66
2024/01/24 10:51:02;;;;;;;35.33;4.85;;;;;;;;;;5076281;28;20403;-66
2024/01/24 10:53:31;;;;;;;32.60;5.13;;;;;;;;;;5055934;28;20394;-66
2024/01/24 10:55:59;;;;;;;45.47;7.05;;;;;;;;;;5078667;28;20702;-66
2024/01/24 10:58:28;;;;;;;29.10;4.97;;;;;;;;;;5078601;28;20052;-66
2024/01/24 11:00:56;;;;;;;37.67;6.32;;;;;;;;;;5081659;28;20129;-66
2024/01/24 11:03:25;;;;;;;40.95;7.25;;;;;;;;;;5076061;28;20056;-66
2024/01/24 11:05:55;;;;;;;39.83;5.10;;;;;;;;;;5078525;28;20052;-66
2024/01/24 11:08:26;;;;;;;30.75;4.45;;;;;;;;;;5056527;28;20056;-66
2024/01/24 11:10:55;;;;;;;42.25;5.85;;;;;;;;;;5076203;28;20102;-66
2024/01/24 11:13:24;;;;;;;38.22;5.53;;;;;;;;;;5071571;28;20048;-66
2024/01/24 11:15:54;;;;;;;38.35;6.25;;;;;;;;;;5079393;28;20052;-66
2024/01/24 11:18:23;;;;;;;29.10;5.22;;;;;;;;;;5076218;28;20048;-66
2024/01/24 11:20:55;;;;;;;33.13;5.72;;;;;;;;;;5076500;28;20040;-65
2024/01/24 11:23:35;;;;;;;33.28;5.43;;;;;;;;;;5079850;28;20059;-66
2024/01/24 11:26:03;;;;;;;33.95;4.93;;;;;;;;;;5079688;28;20101;-66
2024/01/24 11:28:30;;;;;;;43.00;6.60;;;;;;;;;;5079038;28;20055;-66
2024/01/24 11:30:57;;;;;;;28.50;5.85;;;;;;;;;;5076433;28;20549;-66
2024/01/24 11:33:25;;;;;;;28.98;5.20;;;;;;;;;;5076708;28;20044;-66
2024/01/24 11:35:54;;;;;;;38.28;6.18;;;;;;;;;;5081645;28;20139;-66
2024/01/24 11:38:34;;;;;;;42.95;6.43;;;;;;;;;;5078278;28;20173;-66
2024/01/24 11:41:02;;;;;;;32.50;5.43;;;;;;;;;;5077149;28;20426;-66
2024/01/24 11:43:30;;;;;;;32.88;5.57;;;;;;;;;;5074941;28;20048;-66
2024/01/24 11:45:58;;;;;;;35.53;6.55;;;;;;;;;;5079337;28;20075;-66
2024/01/24 11:48:26;;;;;;;31.83;5.03;;;;;;;;;;5074549;28;20062;-66
2024/01/24 11:50:59;;;;;;;34.88;5.30;;;;;;;;;;5077918;28;20132;-66
2024/01/24 11:53:26;;;;;;;41.17;6.13;;;;;;;;;;5072430;28;20048;-66
2024/01/24 11:55:56;;;;;;;39.35;6.40;;;;;;;;;;5078771;28;20127;-66
2024/01/24 11:58:26;;;;;;;35.15;5.50;;;;;;;;;;5065909;28;20151;-66
2024/01/24 12:00:53;;;;;;;35.95;5.10;;;;;;;;;;5079244;28;20135;-66
2024/01/24 12:03:21;;;;;;;39.00;5.97;;;;;;;;;;5077344;28;20113;-66
2024/01/24 12:05:49;;;;;;;46.88;6.63;;;;;;;;;;5076840;28;20595;-66
2024/01/24 12:08:18;;;;;;;37.60;6.05;;;;;;;;;;5075998;28;20215;-66
2024/01/24 12:10:45;;;;;;;37.92;5.80;;;;;;;;;;5074971;28;20064;-66
2024/01/24 12:13:12;;;;;;;36.13;7.03;;;;;;;;;;5075521;28;20066;-66
2024/01/24 12:15:40;;;;;;;33.90;5.90;;;;;;;;;;5069403;28;20121;-66
2024/01/24 12:18:09;;;;;;;36.80;7.20;;;;;;;;;;5074004;28;20049;-66
2024/01/24 12:20:36;;;;;;;28.13;5.63;;;;;;;;;;5078406;28;20402;-66
2024/01/24 12:23:04;;;;;;;35.58;5.85;;;;;;;;;;5069662;28;20052;-66
2024/01/24 12:25:33;;;;;;;46.50;6.18;;;;;;;;;;5073538;28;20083;-66
2024/01/24 12:28:01;;;;;;;42.03;6.25;;;;;;;;;;5086149;28;20040;-66
2024/01/24 12:30:32;;;;;;;29.13;5.50;;;;;;;;;;5063806;28;20048;-66
2024/01/24 12:33:00;;;;;;;39.15;5.28;;;;;;;;;;5068018;28;20064;-66
2024/01/24 12:35:27;;;;;;;36.40;5.72;;;;;;;;;;5080001;28;20059;-66
2024/01/24 12:37:54;;;;;;;46.55;6.53;;;;;;;;;;5081705;28;20048;-66
2024/01/24 12:40:23;;;;;;;39.97;6.20;;;;;;;;;;5068701;28;20044;-66
2024/01/24 12:42:52;;;;;;;40.67;5.93;;;;;;;;;;5083391;28;20076;-66
2024/01/24 12:45:21;;;;;;;29.10;6.88;;;;;;;;;;5084336;28;20048;-66
2024/01/24 12:47:48;;;;;;;47.20;5.85;;;;;;;;;;5087565;28;20052;-66
2024/01/24 12:50:15;;;;;;;47.55;6.50;;;;;;;;;;5068413;28;20395;-65
2024/01/24 12:52:43;;;;;;;31.70;5.63;;;;;;;;;;5088826;28;20048;-66
2024/01/24 12:55:10;;;;;;;38.10;5.22;;;;;;;;;;5083326;28;20590;-66
2024/01/24 12:57:38;;;;;;;37.60;5.97;;;;;;;;;;5082141;28;20048;-66
2024/01/24 13:00:09;;;;;;;37.90;6.78;;;;;;;;;;5083222;28;20642;-66
2024/01/24 13:02:37;;;;;;;40.53;6.15;;;;;;;;;;5055951;28;20144;-66
2024/01/24 13:05:05;;;;;;;38.88;6.25;;;;;;;;;;5088253;28;20403;-66
2024/01/24 13:07:32;;;;;;;43.72;6.85;;;;;;;;;;5080554;28;20549;-66
2024/01/24 13:10:00;;;;;;;42.70;6.15;;;;;;;;;;5079496;28;20106;-66
2024/01/24 13:12:27;;;;;;;46.78;6.15;;;;;;;;;;5077548;28;20471;-66
2024/01/24 13:14:54;;;;;;;42.05;7.07;;;;;;;;;;5080554;28;20082;-66
2024/01/24 13:17:23;;;;;;;46.03;6.55;;;;;;;;;;5073970;28;20049;-66
2024/01/24 13:19:50;;;;;;;37.20;6.47;;;;;;;;;;5076270;28;20044;-66
2024/01/24 13:22:17;;;;;;;47.22;6.25;;;;;;;;;;5067158;28;20059;-66
2024/01/24 13:24:45;;;;;;;39.20;6.18;;;;;;;;;;5083202;28;20055;-66
2024/01/24 13:27:12;;;;;;;45.47;6.10;;;;;;;;;;5078122;28;20055;-66
2024/01/24 13:29:39;;;;;;;39.30;5.68;;;;;;;;;;5086391;28;20046;-66
2024/01/24 13:32:07;;;;;;;42.97;6.65;;;;;;;;;;5084155;28;20055;-66
2024/01/24 13:34:36;;;;;;;44.58;6.25;;;;;;;;;;5060419;28;20052;-66
2024/01/24 13:37:03;;;;;;;40.20;5.88;;;;;;;;;;5078544;28;20054;-66
2024/01/24 13:39:30;;;;;;;33.95;5.07;;;;;;;;;;5079682;28;20128;-66
2024/01/24 13:41:57;;;;;;;40.97;5.95;;;;;;;;;;5065117;28;20380;-66
2024/01/24 13:44:25;;;;;;;46.38;6.45;;;;;;;;;;5072690;28;21130;-66
2024/01/24 13:46:52;;;;;;;39.58;5.80;;;;;;;;;;5075476;28;20052;-66
2024/01/24 13:49:20;;;;;;;36.25;5.50;;;;;;;;;;5074579;28;20063;-66
2024/01/24 13:51:48;;;;;;;41.47;6.75;;;;;;;;;;5078128;28;20073;-66
2024/01/24 13:54:16;;;;;;;48.13;6.45;;;;;;;;;;5083854;28;20458;-66
2024/01/24 13:56:46;;;;;;;43.25;5.97;;;;;;;;;;5078414;28;20093;-66
2024/01/24 13:59:13;;;;;;;43.40;6.13;;;;;;;;;;5081175;28;20419;-66
2024/01/24 14:01:40;;;;;;;41.08;6.60;;;;;;;;;;5077474;28;20044;-66
2024/01/24 14:04:08;;;;;;;38.72;6.07;;;;;;;;;;5085236;28;20048;-66
2024/01/24 14:06:35;;;;;;;36.38;5.15;;;;;;;;;;5077833;28;20506;-66
2024/01/24 14:09:04;;;;;;;37.55;5.53;;;;;;;;;;5076300;28;20053;-66
2024/01/24 14:11:32;;;;;;;46.63;6.60;;;;;;;;;;5051870;28;20090;-66
2024/01/24 14:13:59;;;;;;;39.47;5.93;;;;;;;;;;5072474;28;20079;-66
2024/01/24 14:16:27;;;;;;;40.17;6.03;;;;;;;;;;5077474;28;20055;-66
2024/01/24 14:18:57;;;;;;;53.15;6.70;;;;;;;;;;5081702;28;20567;-66
2024/01/24 14:21:24;;;;;;;32.92;5.53;;;;;;;;;;5081968;28;20044;-66
2024/01/24 14:23:51;;;;;;;45.92;5.88;;;;;;;;;;5082375;28;20052;-66
2024/01/24 14:26:20;;;;;;;52.10;7.13;;;;;;;;;;5080205;28;20052;-66
2024/01/24 14:28:47;;;;;;;56.63;7.25;;;;;;;;;;5079660;28;20055;-66
2024/01/24 14:31:14;;;;;;;41.67;6.03;;;;;;;;;;5084866;28;20048;-66
2024/01/24 14:33:42;;;;;;;37.97;5.43;;;;;;;;;;5083618;28;20040;-66